»·PEaware :: N564AH KSAC-KRDD

N564AH :: KSAC-KRDD

FLIGHT INFORMATION

Flight Status: Arrived
Operator: Privately registered:
United States
More flights under this callsign
Pilot: Adam H. (32152)
Aircraft: CIRRUS SR-22 TURBO
(S22T)
More flights by this aircraft type
Origin: KSAC Sacramento Executive
United States
Destination: KRDD Redding Mun
United States
More flights between these airports :: More routes between these airports
Route:
File this flight plan on PilotEdge
Remarks:
Altitude:
(Current/Filed)
12,000ft
Speed:
(Current/Filed)
160kts
Departed: 10-Nov-20 01:49 PM
Arrived: 10-Nov-20 03:11 PM
Distance/Time
Traveled:
126nm/1:22
Distance/Time
To Go:
Arrived

Flight Plot

Page will automatically refresh every two minutes.

Flight plan parsing failed; only flown route is shown


Map Options




Map Legend


Flown Route
Filed Route
Departure Airport
Arrival Airport
Navaid (VOR, NDB)
Fix

Horizontal Profiles

Position Reports

Time Latitude Longitude Heading Altitude Ground
Speed
10-Nov-20 13:36 38.514685 -121.499313 223 19ft 0kts
10-Nov-20 13:37 38.514685 -121.499313 223 19ft 0kts
10-Nov-20 13:38 38.514685 -121.499313 223 19ft 0kts
10-Nov-20 13:39 38.514685 -121.499313 223 19ft 0kts
10-Nov-20 13:40 38.514685 -121.499313 223 19ft 0kts
10-Nov-20 13:41 38.514685 -121.499313 223 19ft 0kts
10-Nov-20 13:42 38.514684 -121.499314 222 19ft 0kts
10-Nov-20 13:43 38.514541 -121.498429 129 19ft 12kts
10-Nov-20 13:44 38.514683 -121.494596 35 19ft 16kts
10-Nov-20 13:45 38.519217 -121.490684 102 23ft 12kts
10-Nov-20 13:46 38.519144 -121.490247 95 23ft 0kts
10-Nov-20 13:47 38.518339 -121.489863 210 23ft 18kts
10-Nov-20 13:48 38.499954 -121.504428 206 631ft 109kts
10-Nov-20 13:49 38.471867 -121.525227 212 1814ft 116kts
10-Nov-20 13:50 38.443429 -121.546588 196 3085ft 124kts
10-Nov-20 13:51 38.428750 -121.512537 103 4412ft 125kts
10-Nov-20 13:52 38.420511 -121.470849 105 5781ft 122kts
10-Nov-20 13:53 38.411539 -121.428819 108 7149ft 121kts
10-Nov-20 13:54 38.401378 -121.387965 106 8508ft 122kts
10-Nov-20 13:55 38.390378 -121.341745 106 9616ft 146kts
10-Nov-20 13:56 38.378217 -121.289815 106 10650ft 156kts
10-Nov-20 13:57 38.365627 -121.235949 106 11658ft 159kts
10-Nov-20 13:58 38.351483 -121.175549 106 11749ft 189kts
10-Nov-20 13:59 38.336151 -121.110239 106 11744ft 193kts
10-Nov-20 14:00 38.350183 -121.057191 15 11754ft 193kts
10-Nov-20 14:01 38.402227 -121.039283 14 11743ft 194kts
10-Nov-20 14:02 38.454390 -121.021793 14 11743ft 194kts
10-Nov-20 14:03 38.506656 -121.004286 14 11743ft 194kts
10-Nov-20 14:04 38.559122 -120.986689 14 11743ft 194kts
10-Nov-20 14:05 38.611318 -120.969157 14 11739ft 194kts
10-Nov-20 14:06 38.663478 -120.951609 14 11743ft 193kts
10-Nov-20 14:07 38.715661 -120.934029 14 11743ft 193kts
10-Nov-20 14:08 38.767688 -120.916474 14 11743ft 193kts
10-Nov-20 14:09 38.819857 -120.898845 14 11743ft 193kts
10-Nov-20 14:10 38.872464 -120.881041 14 11743ft 193kts
10-Nov-20 14:11 38.925053 -120.863216 14 11743ft 193kts
10-Nov-20 14:12 38.977511 -120.845408 14 11743ft 193kts
10-Nov-20 14:13 39.029984 -120.827567 14 11743ft 193kts
10-Nov-20 14:14 39.082604 -120.809649 14 11743ft 193kts
10-Nov-20 14:15 39.134105 -120.792088 14 12027ft 184kts
10-Nov-20 14:16 39.184254 -120.774965 14 12247ft 190kts
10-Nov-20 14:17 39.236130 -120.765169 329 12246ft 193kts
10-Nov-20 14:18 39.282220 -120.802914 326 12243ft 194kts
10-Nov-20 14:19 39.328120 -120.841007 326 12243ft 194kts
10-Nov-20 14:20 39.373926 -120.879108 326 12243ft 194kts
10-Nov-20 14:21 39.419846 -120.917366 326 12243ft 194kts
10-Nov-20 14:22 39.466264 -120.956099 326 11959ft 204kts
10-Nov-20 14:23 39.514961 -120.996797 326 11460ft 206kts
10-Nov-20 14:24 39.563555 -121.037483 326 10956ft 206kts
10-Nov-20 14:25 39.612107 -121.078202 326 10450ft 205kts
10-Nov-20 14:26 39.659719 -121.118204 326 10240ft 195kts
10-Nov-20 14:27 39.703038 -121.116690 74 10241ft 191kts
10-Nov-20 14:28 39.679801 -121.077292 212 10235ft 191kts
10-Nov-20 14:29 39.647083 -121.131985 233 10244ft 191kts
10-Nov-20 14:30 39.615361 -121.188546 241 10238ft 192kts
10-Nov-20 14:31 39.591512 -121.250739 243 10243ft 191kts
10-Nov-20 14:32 39.567714 -121.312919 243 10243ft 191kts
10-Nov-20 14:33 39.543907 -121.375123 243 10308ft 190kts
10-Nov-20 14:34 39.528300 -121.438954 283 10310ft 190kts
10-Nov-20 14:35 39.541125 -121.507813 283 9948ft 201kts
10-Nov-20 14:36 39.581004 -121.544758 358 9422ft 202kts
10-Nov-20 14:37 39.635965 -121.546480 358 9305ft 192kts
10-Nov-20 14:38 39.689009 -121.550295 353 9307ft 190kts
10-Nov-20 14:39 39.741567 -121.557886 353 9307ft 190kts
10-Nov-20 14:40 39.794086 -121.565465 353 9307ft 190kts
10-Nov-20 14:42 39.846622 -121.573038 353 9307ft 190kts
10-Nov-20 14:43 39.899836 -121.580701 353 9307ft 190kts
10-Nov-20 14:44 39.952986 -121.588346 353 9307ft 190kts
10-Nov-20 14:45 40.005911 -121.595951 353 9307ft 189kts
10-Nov-20 14:46 40.058750 -121.603536 353 9307ft 189kts
10-Nov-20 14:47 40.111193 -121.611055 353 9307ft 189kts
10-Nov-20 14:48 40.163409 -121.620877 348 9307ft 189kts
10-Nov-20 14:49 40.215120 -121.634325 348 9307ft 189kts
10-Nov-20 14:50 40.266658 -121.647724 348 9307ft 189kts
10-Nov-20 14:51 40.318100 -121.662347 333 9305ft 189kts
10-Nov-20 14:52 40.355984 -121.707846 316 9307ft 189kts
10-Nov-20 14:53 40.401862 -121.741286 333 9307ft 189kts
10-Nov-20 14:54 40.449167 -121.772314 333 9307ft 189kts
10-Nov-20 14:55 40.496210 -121.803201 333 9307ft 189kts
10-Nov-20 14:56 40.543421 -121.834249 333 9307ft 189kts
10-Nov-20 14:57 40.590519 -121.865270 333 9307ft 189kts
10-Nov-20 14:58 40.637507 -121.896268 333 9307ft 189kts
10-Nov-20 14:59 40.684719 -121.927464 333 9307ft 189kts
10-Nov-20 15:00 40.710201 -121.983339 283 9308ft 189kts
10-Nov-20 15:01 40.722622 -122.049464 283 8869ft 170kts
10-Nov-20 15:01 40.731496 -122.096887 283 7991ft 152kts
10-Nov-20 15:03 40.727227 -122.157108 223 6453ft 160kts
10-Nov-20 15:03 40.700020 -122.191637 223 5208ft 163kts
10-Nov-20 15:04 40.667071 -122.233419 223 3704ft 164kts
10-Nov-20 15:05 40.633892 -122.275468 223 2318ft 160kts
10-Nov-20 15:06 40.601159 -122.291368 193 2135ft 105kts
10-Nov-20 15:07 40.574404 -122.295598 181 1714ft 91kts
10-Nov-20 15:08 40.548261 -122.294912 179 1189ft 98kts
10-Nov-20 15:09 40.523110 -122.294838 179 583ft 76kts
10-Nov-20 15:10 40.514203 -122.295543 288 498ft 1kts
10-Nov-20 15:11 40.512496 -122.296337 200 498ft 13kts
10-Nov-20 15:12 40.511076 -122.299037 268 496ft 0kts

Navigation Log

Ident Type
Flight plan parsing failed, navigation log unavailable